Main page
METAR-TAF:

Airports :

Baia Mare, Romania

Baia Mare Airport

latitude: 47-40N, longitude: 023-35E, elevation: 218 m

Current weather observation

The report was made 28 minutes ago, at 03:00 UTC
Calm wind
Temperature
Pressure 1011 hPa
Visibility 10 km or more

METAR: LRBM 120300Z AUTO 00000KT 9999 FEW047/// SCT220/// ///// Q1011

Time: 05:28 (03:28 UTC)

Forecast

The report was made 13 hours and 27 minutes ago, at 14:01 UTC
Forecast valid from 11 at 15 UTC to 11 at 24 UTC
Wind 8 kt from the West/Southwest
Visibility 10 km or more
Broken clouds at a height of 3500 ft
Probability 30% :
Temporary
from 11 at 15 UTC to 11 at 17 UTC
Visibility: 5000 m
Scattered clouds at a height of 3000 ft, Cumulonimbus.
Broken clouds at a height of 3500 ft
light rain showers

TAF: LRBM 111401Z 1115/1124 25008KT 9999 BKN035 PROB30 TEMPO 1115/1117 5000 -SHRA SCT030CB BKN035

METAR-TAF

Weather observations and forecasts of more than 4000 airports (METAR and TAF reports).

The available stations are represented by yellow and red dots on the map.

Hover mouse over dot to see the name of the station.

Then click to see weather observations and forecasts.

To change the map : click on the green buttons with a black cross to zoom in, on the green button with a dash to zoom out, or on the green arrows for adjacent maps.


METAR-TAF: